createdAt,value
2019-02-18T00:00:54.511Z,25.40
2019-02-18T00:06:00.454Z,26.20
2019-02-18T00:11:04.889Z,26.73
2019-02-18T00:16:09.304Z,25.33
2019-02-18T00:21:13.783Z,26.73
2019-02-18T00:26:18.158Z,25.07
2019-02-18T00:31:22.538Z,25.23
2019-02-18T00:36:26.923Z,25.03
2019-02-18T00:41:31.306Z,25.60
2019-02-18T00:46:35.691Z,26.40
2019-02-18T00:51:40.066Z,26.57
2019-02-18T00:56:44.460Z,24.03
2019-02-18T01:01:48.941Z,26.47
2019-02-18T01:06:53.266Z,24.83
2019-02-18T01:11:57.625Z,25.87
2019-02-18T01:17:01.975Z,24.47
2019-02-18T01:22:06.352Z,26.33
2019-02-18T01:27:10.713Z,27.93
2019-02-18T01:32:15.085Z,29.07
2019-02-18T01:37:19.497Z,28.93
2019-02-18T01:42:23.866Z,29.00
2019-02-18T01:47:28.224Z,30.27
2019-02-18T01:52:32.680Z,31.00
2019-02-18T01:57:37.026Z,30.17
2019-02-18T02:02:41.520Z,30.72
2019-02-18T02:07:55.523Z,29.87
2019-02-18T02:12:53.753Z,29.03
2019-02-18T02:17:58.142Z,28.83
2019-02-18T02:23:02.493Z,28.20
2019-02-18T02:28:06.843Z,29.17
2019-02-18T02:33:11.300Z,29.17
2019-02-18T02:38:15.652Z,28.93
2019-02-18T02:43:20.075Z,28.43
2019-02-18T02:48:24.448Z,29.10
2019-02-18T02:53:28.823Z,29.50
2019-02-18T02:58:33.213Z,27.47
2019-02-18T03:03:37.627Z,27.80
2019-02-18T03:08:41.987Z,28.50
2019-02-18T03:13:46.399Z,28.93
2019-02-18T03:18:50.754Z,29.90
2019-02-18T03:23:55.096Z,31.60
2019-02-18T03:29:32.848Z,31.73
2019-02-18T03:34:37.867Z,31.63
2019-02-18T03:39:42.257Z,30.87
2019-02-18T03:44:46.684Z,32.23
2019-02-18T03:49:51.059Z,31.80
2019-02-18T03:54:55.422Z,31.17
2019-02-18T03:59:59.804Z,31.53
2019-02-18T04:05:05.817Z,31.63
2019-02-18T04:10:13.614Z,31.27
2019-02-18T04:15:18.432Z,30.53
2019-02-18T04:20:22.823Z,31.17
2019-02-18T04:25:27.189Z,31.23
2019-02-18T04:30:31.550Z,32.90
2019-02-18T04:35:36.230Z,32.80
2019-02-18T04:40:40.629Z,32.87
2019-02-18T04:45:44.992Z,32.17
2019-02-18T04:50:49.459Z,33.03
2019-02-18T04:55:53.836Z,32.53
2019-02-18T05:00:58.205Z,32.83
2019-02-18T05:06:02.574Z,33.23
2019-02-18T05:11:06.930Z,33.07
2019-02-18T05:16:11.313Z,32.42
2019-02-18T05:21:15.730Z,32.90
2019-02-18T05:26:20.111Z,33.70
2019-02-18T05:31:24.497Z,33.10
2019-02-18T05:36:28.875Z,32.90
2019-02-18T05:41:33.257Z,32.45
2019-02-18T05:46:37.637Z,32.73
2019-02-18T05:51:42.352Z,31.23
2019-02-18T05:56:46.833Z,32.60
2019-02-18T06:01:51.323Z,29.53
2019-02-18T06:06:55.829Z,33.07
2019-02-18T06:12:00.287Z,32.60
2019-02-18T06:17:04.691Z,31.37
2019-02-18T06:22:09.036Z,32.40
2019-02-18T06:27:13.454Z,33.20
2019-02-18T06:32:17.835Z,32.30
2019-02-18T06:37:22.182Z,31.40
2019-02-18T06:42:26.604Z,33.60
2019-02-18T06:47:30.983Z,35.50
2019-02-18T06:52:35.332Z,33.97
2019-02-18T06:57:41.347Z,35.00
2019-02-18T07:02:47.331Z,34.03
2019-02-18T07:07:53.371Z,34.83
2019-02-18T07:12:57.752Z,34.10
2019-02-18T07:18:02.156Z,36.33
2019-02-18T07:23:06.626Z,35.77
2019-02-18T07:28:11.750Z,36.73
2019-02-18T07:33:16.106Z,37.60
2019-02-18T07:38:20.495Z,37.60
2019-02-18T07:43:24.845Z,39.10
2019-02-18T07:48:29.971Z,39.07
2019-02-18T07:53:34.354Z,38.07
2019-02-18T07:58:38.765Z,38.60
2019-02-18T08:03:43.143Z,36.93
2019-02-18T08:08:47.495Z,38.57
2019-02-18T08:13:51.873Z,38.90
2019-02-18T08:18:56.980Z,37.57
2019-02-18T08:24:01.330Z,38.27
2019-02-18T08:29:05.687Z,37.80
2019-02-18T08:34:10.072Z,38.17
2019-02-18T08:39:14.444Z,38.78
2019-02-18T08:44:18.791Z,38.57
2019-02-18T08:49:26.031Z,38.80
2019-02-18T08:54:30.387Z,39.90
2019-02-18T08:59:34.742Z,38.50
2019-02-18T09:04:39.126Z,40.13
2019-02-18T09:09:43.504Z,38.27
2019-02-18T09:14:47.919Z,38.97
2019-02-18T09:19:53.235Z,38.30
2019-02-18T09:24:59.258Z,37.47
2019-02-18T09:30:05.372Z,38.83
2019-02-18T09:35:10.385Z,35.97
2019-02-18T09:40:14.757Z,36.37
2019-02-18T09:45:19.181Z,36.23
2019-02-18T09:50:23.586Z,36.37
2019-02-18T09:55:27.967Z,34.73
2019-02-18T10:00:35.028Z,34.97
2019-02-18T10:05:39.450Z,34.83
2019-02-18T10:10:43.815Z,33.67
2019-02-18T10:15:48.269Z,34.10
2019-02-18T10:20:52.632Z,33.00
2019-02-18T10:25:57.067Z,33.23
2019-02-18T10:31:01.512Z,33.37
2019-02-18T10:36:05.921Z,32.97
2019-02-18T10:41:10.376Z,33.30
2019-02-18T10:46:14.866Z,33.73
2019-02-18T10:51:19.251Z,32.35
2019-02-18T10:56:23.641Z,33.73
2019-02-18T11:01:27.992Z,32.63
2019-02-18T11:06:32.479Z,32.33
2019-02-18T11:11:36.842Z,31.97
2019-02-18T11:16:41.251Z,33.13
2019-02-18T11:21:45.652Z,31.53
2019-02-18T11:26:50.033Z,31.00
2019-02-18T11:31:54.448Z,30.53
2019-02-18T11:36:58.836Z,31.67
2019-02-18T11:42:03.609Z,30.47
2019-02-18T11:47:09.035Z,31.07
2019-02-18T11:52:13.409Z,31.80
2019-02-18T11:57:17.798Z,30.67
2019-02-18T12:02:22.215Z,30.40
2019-02-18T12:07:26.592Z,30.67
2019-02-18T12:12:30.973Z,29.80
2019-02-18T12:17:35.727Z,30.10
2019-02-18T12:22:40.156Z,30.70
2019-02-18T12:27:44.550Z,29.10
2019-02-18T12:32:48.916Z,29.60
2019-02-18T12:37:55.586Z,29.47
2019-02-18T12:42:59.391Z,28.83
2019-02-18T12:48:03.769Z,27.27
2019-02-18T12:53:08.139Z,27.63
2019-02-18T12:58:12.595Z,28.80
2019-02-18T13:03:16.996Z,27.67
2019-02-18T13:08:21.594Z,26.20
2019-02-18T13:13:25.983Z,27.50
2019-02-18T13:18:30.339Z,27.30
2019-02-18T13:23:34.684Z,28.57
2019-02-18T13:28:39.223Z,26.37
2019-02-18T13:33:43.873Z,27.83
2019-02-18T13:38:48.356Z,26.27
2019-02-18T13:43:52.716Z,26.27
2019-02-18T13:48:57.104Z,23.03
2019-02-18T13:54:01.503Z,24.93
2019-02-18T13:59:06.334Z,24.97
2019-02-18T14:04:10.778Z,24.87
2019-02-18T14:09:15.167Z,23.90
2019-02-18T14:14:19.570Z,23.87
2019-02-18T14:19:23.936Z,24.10
2019-02-18T14:24:28.317Z,23.77
2019-02-18T14:29:32.703Z,22.07
2019-02-18T14:34:37.075Z,22.73
2019-02-18T14:39:42.509Z,21.83
2019-02-18T14:44:46.881Z,22.17
2019-02-18T14:49:51.273Z,21.13
2019-02-18T14:54:55.984Z,21.07
2019-02-18T15:00:00.727Z,21.37
2019-02-18T15:05:06.989Z,21.37
2019-02-18T15:10:11.632Z,20.70
2019-02-18T15:15:16.269Z,20.60
2019-02-18T15:20:20.605Z,19.67
2019-02-18T15:25:25.057Z,19.43
2019-02-18T15:30:29.452Z,19.40
2019-02-18T15:35:34.201Z,18.30
2019-02-18T15:40:39.703Z,19.03
2019-02-18T15:45:44.088Z,18.70
2019-02-18T15:50:48.481Z,17.87
2019-02-18T15:55:54.177Z,17.63
2019-02-18T16:00:59.336Z,18.17
2019-02-18T16:06:03.931Z,16.90
2019-02-18T16:11:08.805Z,16.77
2019-02-18T16:16:13.166Z,17.47
2019-02-18T16:21:17.603Z,17.23
2019-02-18T16:26:21.984Z,17.47
2019-02-18T16:31:26.433Z,17.90
2019-02-18T16:36:30.829Z,17.48
2019-02-18T16:41:36.252Z,17.77
2019-02-18T16:46:41.950Z,17.50
2019-02-18T16:51:48.643Z,18.87
2019-02-18T16:56:53.113Z,19.23
2019-02-18T17:01:58.576Z,19.97
2019-02-18T17:07:02.988Z,19.60
2019-02-18T17:12:08.873Z,19.70
2019-02-18T17:17:18.206Z,20.50
2019-02-18T17:22:22.499Z,20.83
2019-02-18T17:27:26.919Z,21.10
2019-02-18T17:32:31.359Z,21.10
2019-02-18T17:37:35.735Z,20.93
2019-02-18T17:42:40.226Z,20.73
2019-02-18T17:47:47.680Z,22.17
2019-02-18T17:52:51.735Z,21.97
2019-02-18T17:58:00.289Z,25.57
2019-02-18T18:03:07.390Z,21.77
2019-02-18T18:08:11.775Z,21.37
2019-02-18T18:13:24.779Z,22.20
2019-02-18T18:18:22.336Z,21.87
2019-02-18T18:23:26.691Z,21.13
2019-02-18T18:28:31.087Z,21.33
2019-02-18T18:33:35.745Z,21.90
2019-02-18T18:38:40.105Z,19.70
2019-02-18T18:43:44.511Z,21.90
2019-02-18T18:48:48.825Z,21.70
2019-02-18T18:53:53.173Z,21.13
2019-02-18T18:58:57.534Z,21.35
2019-02-18T19:04:01.917Z,22.40
2019-02-18T19:09:06.421Z,21.73
2019-02-18T19:14:11.571Z,21.83
2019-02-18T19:19:15.951Z,22.07
2019-02-18T19:24:20.336Z,22.27
2019-02-18T19:29:24.711Z,23.00
2019-02-18T19:34:30.192Z,21.73
2019-02-18T19:39:34.717Z,23.13
2019-02-18T19:44:39.165Z,23.20
2019-02-18T19:49:44.818Z,21.40
2019-02-18T19:54:49.627Z,21.93
2019-02-18T19:59:53.960Z,22.20
2019-02-18T20:04:58.405Z,22.53
2019-02-18T20:10:02.831Z,22.47
2019-02-18T20:15:10.329Z,23.10
2019-02-18T20:20:16.469Z,22.40
2019-02-18T20:25:20.941Z,23.47
2019-02-18T20:30:27.158Z,22.60
2019-02-18T20:35:31.659Z,22.05
2019-02-18T20:40:36.214Z,22.30
2019-02-18T20:45:45.691Z,22.67
2019-02-18T20:50:53.238Z,20.97
2019-02-18T20:55:57.834Z,20.07
2019-02-18T21:01:02.587Z,21.33
2019-02-18T21:06:06.960Z,20.63
2019-02-18T21:11:11.425Z,20.37
2019-02-18T21:16:16.124Z,21.73
2019-02-18T21:21:20.519Z,19.37
2019-02-18T21:26:24.912Z,18.57
2019-02-18T21:31:29.595Z,22.10
2019-02-18T21:36:34.056Z,22.27
2019-02-18T21:41:38.427Z,19.93
2019-02-18T21:46:42.983Z,22.80
2019-02-18T21:51:48.612Z,22.10
2019-02-18T21:56:53.288Z,22.70
2019-02-18T22:01:57.829Z,21.50
2019-02-18T22:07:02.504Z,22.10
2019-02-18T22:12:06.919Z,20.13
2019-02-18T22:17:11.836Z,20.33
2019-02-18T22:22:16.237Z,20.63
2019-02-18T22:27:20.647Z,19.27
2019-02-18T22:32:26.101Z,20.63
2019-02-18T22:37:30.513Z,17.80
2019-02-18T22:42:36.099Z,20.17
2019-02-18T22:47:44.604Z,20.20
2019-02-18T22:52:51.593Z,21.80
2019-02-18T22:57:58.239Z,20.40
2019-02-18T23:03:02.712Z,22.37
2019-02-18T23:08:07.062Z,20.87
2019-02-18T23:13:11.533Z,20.67
2019-02-18T23:18:16.085Z,21.23
2019-02-18T23:23:20.481Z,21.17
2019-02-18T23:28:24.843Z,21.33
2019-02-18T23:33:29.214Z,22.47
2019-02-18T23:38:33.650Z,22.47
2019-02-18T23:43:38.033Z,23.50
2019-02-18T23:48:42.436Z,22.80
2019-02-18T23:53:46.827Z,21.77
2019-02-18T23:58:51.215Z,22.93
